Time;durP1;ratioP1;P1;durP2;ratioP2;P2;SDS_P1;SDS_P2;PMS_P1;PMS_P2;Temp;Humidity;BMP_temperature;BMP_pressure;BME280_temperature;BME280_humidity;BME280_pressure;Samples;Min_cycle;Max_cycle;Signal;HPM_P1;HPM_P2
2021/03/11 00:03:02;;;;;;;11.68;3.92;;;;;;;-11.17;29.25;100173.38;10668754;27;20043;-50
2021/03/11 00:08:05;;;;;;;12.57;4.43;;;;;;;-11.26;29.28;100176.66;10668353;27;20440;-48
2021/03/11 00:13:08;;;;;;;10.77;3.73;;;;;;;-11.26;29.19;100178.34;10671737;27;20042;-54
2021/03/11 00:18:11;;;;;;;10.17;3.57;;;;;;;-11.28;29.22;100188.47;10672348;27;20049;-57
2021/03/11 00:23:13;;;;;;;;;;;;;;;-11.25;29.21;100183.41;10670228;27;20395;-50
2021/03/11 00:28:15;;;;;;;13.50;3.20;;;;;;;-11.34;29.13;100187.56;10668280;27;19980;-48
2021/03/11 00:33:17;;;;;;;5.40;2.22;;;;;;;-11.43;29.42;100188.28;10668209;27;20425;-48
2021/03/11 00:38:19;;;;;;;5.23;1.57;;;;;;;-11.48;29.39;100183.19;10667442;27;20471;-48
2021/03/11 00:43:21;;;;;;;5.57;1.77;;;;;;;-11.46;29.61;100183.19;10669850;27;20043;-49
2021/03/11 00:48:23;;;;;;;5.07;2.15;;;;;;;-11.46;29.25;100173.88;10645032;27;20054;-48
2021/03/11 00:53:24;;;;;;;6.13;1.80;;;;;;;-11.44;29.76;100182.38;10590503;28;20051;-48
2021/03/11 00:58:27;;;;;;;7.93;2.10;;;;;;;-11.44;29.82;100184.91;10590279;28;20379;-50
2021/03/11 01:03:28;;;;;;;5.78;2.30;;;;;;;-11.44;29.36;100181.53;10572774;28;20040;-48
2021/03/11 01:08:34;;;;;;;7.13;1.70;;;;;;;-11.42;29.36;100184.91;10572507;28;20488;-51
2021/03/11 01:13:36;;;;;;;8.53;1.83;;;;;;;-11.45;29.29;100184.88;10589510;28;20043;-50
2021/03/11 01:18:38;;;;;;;4.18;1.20;;;;;;;-11.47;29.37;100184.03;10589442;28;20063;-50
2021/03/11 01:23:40;;;;;;;4.83;1.40;;;;;;;-11.48;29.50;100185.72;10590344;28;20081;-49
2021/03/11 01:28:42;;;;;;;6.03;1.53;;;;;;;-11.49;29.91;100188.22;10589455;28;20044;-50
2021/03/11 01:33:44;;;;;;;6.05;1.90;;;;;;;-11.49;30.03;100184.00;10601004;27;20043;-49
2021/03/11 01:38:45;;;;;;;3.77;1.30;;;;;;;-11.45;29.62;100195.03;10631692;27;20054;-48
2021/03/11 01:43:48;;;;;;;5.40;1.40;;;;;;;-11.37;29.69;100188.38;10631301;27;20043;-51
2021/03/11 01:48:49;;;;;;;6.72;2.00;;;;;;;-11.30;29.74;100190.13;10634616;27;20054;-51
2021/03/11 01:53:52;;;;;;;6.87;1.30;;;;;;;-11.25;29.73;100183.41;10632247;27;20104;-49
2021/03/11 01:58:54;;;;;;;6.18;1.98;;;;;;;-11.26;29.75;100185.97;10630913;27;20047;-49
2021/03/11 02:03:56;;;;;;;3.17;1.23;;;;;;;-11.26;29.21;100191.03;10612076;27;20062;-50
2021/03/11 02:08:58;;;;;;;4.03;1.80;;;;;;;-11.26;29.74;100186.81;10629629;27;20112;-48
2021/03/11 02:14:09;;;;;;;5.93;1.33;;;;;;;-11.24;29.44;100190.19;10619214;27;20040;-52
2021/03/11 02:19:26;;;;;;;6.90;1.67;;;;;;;-11.25;29.29;100198.66;10572466;28;20509;-48
2021/03/11 02:24:45;;;;;;;4.50;1.57;;;;;;;-11.26;29.71;100207.13;10587172;28;20063;-48
2021/03/11 02:29:48;;;;;;;5.83;1.67;;;;;;;-11.25;29.76;100202.88;10586374;28;20039;-51
2021/03/11 02:34:53;;;;;;;6.22;1.48;;;;;;;-11.26;29.88;100207.13;10587981;28;20055;-49
2021/03/11 02:39:57;;;;;;;5.37;1.67;;;;;;;-11.27;29.83;100197.78;10591028;28;20101;-50
2021/03/11 02:45:01;;;;;;;6.77;1.43;;;;;;;-11.26;29.85;100206.25;10586597;28;20396;-52
2021/03/11 02:50:05;;;;;;;3.20;1.30;;;;;;;-11.22;29.91;100206.28;10585349;28;20047;-50
2021/03/11 02:55:09;;;;;;;6.17;1.60;;;;;;;-11.20;29.93;100208.88;10585325;28;20047;-48
2021/03/11 03:00:13;;;;;;;4.67;1.40;;;;;;;-11.20;29.67;100207.19;10585271;27;20043;-50
2021/03/11 03:05:17;;;;;;;4.63;1.57;;;;;;;-11.22;29.97;100208.84;10585649;28;20082;-48
2021/03/11 03:10:22;;;;;;;5.47;1.87;;;;;;;-11.16;30.06;100213.13;10585416;28;20055;-47
2021/03/11 03:15:25;;;;;;;6.50;1.80;;;;;;;-11.16;29.41;100208.06;10585116;28;20052;-48
2021/03/11 03:20:28;;;;;;;4.10;1.63;;;;;;;-11.16;29.92;100197.91;10595884;27;20063;-50
2021/03/11 03:25:29;;;;;;;7.40;2.28;;;;;;;-11.21;29.65;100202.06;10585197;28;20094;-48
2021/03/11 03:30:32;;;;;;;7.60;1.77;;;;;;;-11.22;30.15;100208.00;10584247;28;20047;-50
2021/03/11 03:35:35;;;;;;;5.93;2.17;;;;;;;-11.20;29.63;100208.88;10584080;28;20044;-47
2021/03/11 03:40:37;;;;;;;5.97;1.80;;;;;;;-11.15;29.52;100200.44;10585008;28;20396;-48
2021/03/11 03:45:42;;;;;;;7.67;1.63;;;;;;;-11.10;29.94;100197.97;10584713;28;20047;-52
2021/03/11 03:50:47;;;;;;;6.70;2.03;;;;;;;-11.08;30.13;100187.81;10582935;28;20043;-51
2021/03/11 03:55:53;;;;;;;6.43;2.00;;;;;;;-11.02;29.64;100195.50;10583425;28;20054;-48
2021/03/11 04:00:57;;;;;;;4.47;1.70;;;;;;;-10.94;29.78;100204.03;10584060;28;20047;-54
2021/03/11 04:05:59;;;;;;;5.83;2.17;;;;;;;-10.71;30.07;100197.50;10584147;28;20051;-51
2021/03/11 04:11:01;;;;;;;4.93;2.00;;;;;;;-10.05;30.93;100207.28;10585083;28;20123;-49
2021/03/11 04:16:06;;;;;;;5.22;1.80;;;;;;;-8.61;31.47;100205.25;10583839;28;20058;-55
2021/03/11 04:21:09;;;;;;;9.43;2.60;;;;;;;-7.03;31.63;100207.34;10590582;28;20070;-51
2021/03/11 04:26:11;;;;;;;6.05;2.20;;;;;;;-5.51;31.49;100204.34;10592881;28;20040;-51
2021/03/11 04:31:14;;;;;;;6.32;2.20;;;;;;;-3.75;31.32;100211.94;10573941;28;20123;-49
2021/03/11 04:36:16;;;;;;;7.93;2.53;;;;;;;-2.01;30.68;100214.09;10591821;28;20122;-52
2021/03/11 04:41:18;;;;;;;9.80;3.13;;;;;;;-0.20;29.79;100213.16;10592054;28;20055;-51
2021/03/11 04:46:22;;;;;;;12.23;5.53;;;;;;;1.30;28.73;100207.78;10591997;28;20104;-52
2021/03/11 04:51:24;;;;;;;9.40;4.30;;;;;;;3.11;27.54;100206.09;10590695;28;20104;-53
2021/03/11 04:56:27;;;;;;;10.82;4.93;;;;;;;4.77;26.95;100197.84;10591345;28;20044;-52
2021/03/11 05:01:33;;;;;;;11.80;5.57;;;;;;;6.45;25.45;100197.91;10591894;28;20066;-50
2021/03/11 05:06:35;;;;;;;11.13;4.95;;;;;;;7.78;25.29;100204.38;10591252;28;20055;-52
2021/03/11 05:11:36;;;;;;;14.27;5.80;;;;;;;9.13;24.25;100201.25;10590298;28;20078;-52
2021/03/11 05:16:39;;;;;;;9.95;5.32;;;;;;;10.49;23.42;100192.97;10591119;28;20044;-50
2021/03/11 05:21:40;;;;;;;13.65;5.75;;;;;;;11.59;22.38;100193.06;10575715;28;20059;-51
2021/03/11 05:26:42;;;;;;;10.07;5.25;;;;;;;12.92;21.35;100188.91;10587059;28;20490;-53
2021/03/11 05:31:44;;;;;;;9.82;5.55;;;;;;;13.75;20.23;100196.44;10589281;28;20055;-53
2021/03/11 05:36:46;;;;;;;16.08;6.35;;;;;;;15.01;19.34;100195.31;10594518;28;20048;-50
2021/03/11 05:41:48;;;;;;;9.65;3.90;;;;;;;16.00;18.50;100198.00;10577953;28;20396;-53
2021/03/11 05:46:51;;;;;;;14.90;7.30;;;;;;;16.99;17.63;100197.63;10588545;28;20043;-51
2021/03/11 05:51:53;;;;;;;17.98;9.20;;;;;;;17.59;17.65;100206.44;10586969;28;20050;-52
2021/03/11 05:56:55;;;;;;;17.52;9.18;;;;;;;18.27;16.80;100208.78;10587112;28;20051;-52
2021/03/11 06:02:04;;;;;;;20.13;9.10;;;;;;;18.92;16.33;100207.00;10587704;28;20043;-51
2021/03/11 06:07:07;;;;;;;16.35;9.20;;;;;;;19.77;15.26;100213.22;10587168;28;20413;-51
2021/03/11 06:12:13;;;;;;;;;;;;;;;20.65;17.71;100214.44;10588141;28;20052;-54
2021/03/11 06:17:17;;;;;;;19.20;8.48;;;;;;;21.71;15.41;100204.25;10581154;28;20369;-54
2021/03/11 06:22:18;;;;;;;11.82;6.90;;;;;;;22.82;14.30;100201.78;10587692;28;20488;-52
2021/03/11 06:27:21;;;;;;;14.27;6.18;;;;;;;23.82;12.54;100208.34;10586861;28;20052;-51
2021/03/11 06:32:24;;;;;;;9.73;4.18;;;;;;;24.79;11.64;100211.41;10586945;28;20090;-52
2021/03/11 06:37:37;;;;;;;8.13;4.18;;;;;;;25.42;10.25;100208.88;10568139;28;20388;-52
2021/03/11 06:42:39;;;;;;;9.75;4.72;;;;;;;25.92;10.52;100214.41;10567230;28;20047;-55
2021/03/11 06:47:41;;;;;;;9.53;3.73;;;;;;;26.34;10.02;100211.94;10585862;28;20052;-54
2021/03/11 06:53:01;;;;;;;11.98;6.95;;;;;;;26.79;9.48;100214.44;10601502;28;20052;-56
2021/03/11 06:58:16;;;;;;;22.27;9.23;;;;;;;26.98;8.79;100217.13;10588881;28;20472;-52
2021/03/11 07:03:18;;;;;;;18.30;9.30;;;;;;;27.02;8.88;100224.53;10586269;28;20055;-52
2021/03/11 07:08:20;;;;;;;22.88;10.18;;;;;;;27.06;8.35;100214.94;10585262;28;20066;-54
2021/03/11 07:13:21;;;;;;;21.70;9.57;;;;;;;27.09;8.39;100219.03;10584907;28;20059;-54
2021/03/11 07:18:24;;;;;;;25.40;9.13;;;;;;;27.20;8.13;100212.91;10583741;28;20308;-52
2021/03/11 07:23:26;;;;;;;16.08;8.40;;;;;;;28.68;7.45;100221.22;10584262;28;20093;-54
2021/03/11 07:28:29;;;;;;;21.27;9.43;;;;;;;29.86;6.90;100215.41;10566287;28;20051;-54
2021/03/11 07:33:33;;;;;;;19.15;8.65;;;;;;;30.24;6.37;100222.88;10567545;28;20075;-55
2021/03/11 07:38:36;;;;;;;13.60;5.82;;;;;;;31.33;5.57;100222.13;10612564;28;20043;-52
2021/03/11 07:43:39;;;;;;;11.48;5.43;;;;;;;31.21;5.31;100213.31;10565987;28;20367;-54
2021/03/11 07:48:41;;;;;;;13.60;5.70;;;;;;;30.45;5.24;100213.09;10583883;28;20047;-54
2021/03/11 07:53:43;;;;;;;13.43;5.82;;;;;;;30.78;5.26;100211.44;10582941;28;20464;-55
2021/03/11 07:58:46;;;;;;;9.45;4.68;;;;;;;31.35;5.28;100222.72;10583688;28;20058;-54
2021/03/11 08:03:51;;;;;;;9.25;4.82;;;;;;;31.81;4.47;100208.78;10583940;28;20134;-52
2021/03/11 08:08:53;;;;;;;12.40;5.07;;;;;;;32.09;4.77;100215.81;10586093;28;20058;-55
2021/03/11 08:14:22;;;;;;;9.35;4.68;;;;;;;32.63;4.25;100207.47;10573084;28;20116;-57
2021/03/11 08:19:50;;;;;;;10.38;4.30;;;;;;;32.72;4.15;100202.34;10565054;28;20047;-52
2021/03/11 08:24:51;;;;;;;9.93;4.50;;;;;;;32.50;4.13;100205.22;10582296;28;20056;-57
2021/03/11 08:29:53;;;;;;;12.57;6.00;;;;;;;33.17;3.84;100209.09;10582745;28;20039;-52
2021/03/11 08:34:56;;;;;;;10.18;4.90;;;;;;;33.81;3.43;100195.03;10580507;28;20048;-54
2021/03/11 08:39:57;;;;;;;8.30;4.57;;;;;;;34.29;3.32;100198.25;10607124;28;20051;-55
2021/03/11 08:44:59;;;;;;;9.32;5.00;;;;;;;34.74;3.17;100203.91;10586643;28;20082;-52
2021/03/11 08:50:02;;;;;;;9.02;4.80;;;;;;;35.44;2.81;100198.34;10582555;28;20471;-54
2021/03/11 08:55:46;;;;;;;8.40;5.07;;;;;;;35.87;2.81;100193.13;10582384;28;20052;-52
2021/03/11 09:01:01;;;;;;;10.05;4.80;;;;;;;34.77;2.88;100193.25;10582255;28;20050;-52
2021/03/11 09:06:06;;;;;;;10.95;4.85;;;;;;;34.02;2.88;100189.53;10586730;28;20058;-52
2021/03/11 09:11:12;;;;;;;8.93;4.22;;;;;;;34.05;2.87;100194.47;10590959;28;20059;-52
2021/03/11 09:16:13;;;;;;;10.60;5.90;;;;;;;33.17;2.83;100200.91;10589866;28;20476;-53
2021/03/11 09:21:16;;;;;;;7.28;4.10;;;;;;;33.14;2.85;100196.00;10589196;28;20116;-53
2021/03/11 09:26:25;;;;;;;9.23;4.35;;;;;;;31.97;2.90;100190.72;10590471;28;20505;-54
2021/03/11 09:31:28;;;;;;;7.82;3.80;;;;;;;32.75;2.70;100194.47;10614637;28;20443;-55
2021/03/11 09:36:30;;;;;;;7.63;4.03;;;;;;;32.75;2.77;100185.47;10613074;27;20051;-54
2021/03/11 09:41:32;;;;;;;13.50;4.55;;;;;;;32.21;2.68;100183.00;10631876;27;20151;-54
2021/03/11 09:46:34;;;;;;;;;;;;;;;31.98;4.36;100182.28;10632275;27;20099;-54
2021/03/11 09:51:37;;;;;;;9.20;4.90;;;;;;;31.39;3.40;100185.00;10612330;27;19923;-54
2021/03/11 09:56:40;;;;;;;11.23;4.35;;;;;;;30.58;3.50;100180.22;10630571;27;20046;-52
2021/03/11 10:01:43;;;;;;;8.50;4.13;;;;;;;27.33;3.85;100176.81;10629687;27;20039;-51
2021/03/11 10:06:48;;;;;;;;;;;;;;;20.77;6.27;100179.25;10636688;27;20043;-51
2021/03/11 10:11:52;;;;;;;9.77;4.20;;;;;;;15.28;7.85;100183.88;10639950;27;20260;-53
2021/03/11 10:16:55;;;;;;;9.48;3.90;;;;;;;11.90;8.45;100179.06;10630342;27;20103;-52
2021/03/11 10:22:02;;;;;;;10.83;4.30;;;;;;;9.56;9.53;100176.34;10632154;27;20051;-49
2021/03/11 10:27:05;;;;;;;8.05;3.42;;;;;;;7.86;9.89;100172.47;10630177;27;20053;-49
2021/03/11 10:32:08;;;;;;;7.35;3.17;;;;;;;5.90;10.50;100165.44;10612773;27;20051;-52
2021/03/11 10:37:13;;;;;;;8.18;2.70;;;;;;;4.64;10.84;100165.56;10629133;27;20127;-49
2021/03/11 10:42:15;;;;;;;6.53;2.65;;;;;;;3.69;11.48;100158.25;10628628;27;20051;-51
2021/03/11 10:47:18;;;;;;;8.60;2.95;;;;;;;2.99;11.93;100159.91;10629645;27;20043;-49
2021/03/11 10:52:21;;;;;;;8.50;3.13;;;;;;;2.24;12.33;100148.56;10628458;27;20059;-54
2021/03/11 10:57:24;;;;;;;6.55;2.63;;;;;;;2.11;12.48;100147.41;10610398;27;20491;-51
2021/03/11 11:02:27;;;;;;;6.90;2.40;;;;;;;2.08;12.45;100134.56;10628874;27;20046;-52
2021/03/11 11:07:29;;;;;;;9.07;2.70;;;;;;;1.77;12.58;100127.28;10628359;27;20145;-51
2021/03/11 11:12:31;;;;;;;6.15;2.72;;;;;;;1.46;12.61;100138.06;10609923;27;20103;-49
2021/03/11 11:17:32;;;;;;;7.40;2.28;;;;;;;0.82;12.99;100133.66;10634295;27;20043;-49
2021/03/11 11:22:35;;;;;;;4.97;2.13;;;;;;;0.58;13.08;100128.50;10628369;27;20104;-51
2021/03/11 11:27:37;;;;;;;7.90;2.58;;;;;;;0.63;13.45;100123.19;10627639;27;20396;-49
2021/03/11 11:32:39;;;;;;;7.32;2.38;;;;;;;0.50;13.47;100119.38;10628464;27;20062;-51
2021/03/11 11:37:42;;;;;;;10.43;2.83;;;;;;;0.45;13.70;100120.38;10629211;27;20039;-49
2021/03/11 11:42:44;;;;;;;7.57;2.70;;;;;;;0.52;13.94;100120.97;10627320;27;20054;-51
2021/03/11 11:47:45;;;;;;;6.03;2.20;;;;;;;0.25;13.74;100122.84;10627896;27;20043;-48
2021/03/11 11:52:48;;;;;;;5.32;1.92;;;;;;;-0.03;14.17;100118.66;10632025;27;20058;-51
2021/03/11 11:57:49;;;;;;;4.75;1.85;;;;;;;-0.12;14.60;100113.81;10630544;27;20491;-57
2021/03/11 12:02:51;;;;;;;9.60;2.08;;;;;;;-0.03;14.62;100108.31;10635458;27;20058;-58
2021/03/11 12:07:53;;;;;;;7.10;2.33;;;;;;;-0.03;14.41;100100.56;10634625;27;20088;-49
2021/03/11 12:12:55;;;;;;;7.07;2.13;;;;;;;-0.08;14.56;100101.63;10627561;28;20395;-48
2021/03/11 12:17:57;;;;;;;6.28;2.63;;;;;;;-0.25;14.54;100113.41;10627228;28;20046;-51
2021/03/11 12:22:59;;;;;;;6.10;2.40;;;;;;;-0.51;15.17;100103.94;10626553;28;20062;-53
2021/03/11 12:28:02;;;;;;;4.72;1.83;;;;;;;-0.90;14.82;100102.63;10626704;28;20055;-51
2021/03/11 12:33:04;;;;;;;5.70;2.23;;;;;;;-1.20;15.49;100100.09;10625813;28;20069;-51
2021/03/11 12:38:07;;;;;;;5.32;2.10;;;;;;;-1.25;15.78;100092.53;10626412;27;20043;-48
2021/03/11 12:43:08;;;;;;;7.88;2.25;;;;;;;-1.63;15.87;100091.94;10634735;27;20463;-53
2021/03/11 12:48:10;;;;;;;4.57;1.73;;;;;;;-1.83;15.92;100083.09;10634227;27;20490;-48
2021/03/11 12:53:13;;;;;;;5.47;1.88;;;;;;;-2.01;16.14;100072.41;10634860;27;20051;-51
2021/03/11 12:58:15;;;;;;;4.05;1.60;;;;;;;-2.20;16.49;100074.63;10633865;27;20131;-48
2021/03/11 13:03:16;;;;;;;4.90;1.70;;;;;;;-2.36;16.73;100063.91;10633815;27;20134;-48
2021/03/11 13:08:20;;;;;;;8.60;1.75;;;;;;;-2.38;17.09;100064.81;10616513;27;20129;-50
2021/03/11 13:13:22;;;;;;;4.18;1.50;;;;;;;-2.56;16.96;100061.84;10633325;27;20481;-51
2021/03/11 13:18:24;;;;;;;7.93;3.22;;;;;;;-2.54;17.39;100064.38;10635864;27;20336;-54
2021/03/11 13:23:27;;;;;;;5.68;2.13;;;;;;;-2.39;17.11;100058.84;10621972;27;20059;-49
2021/03/11 13:28:28;;;;;;;5.57;2.20;;;;;;;-2.37;17.10;100053.63;10633148;27;20046;-51
2021/03/11 13:33:30;;;;;;;3.78;1.50;;;;;;;-2.43;17.10;100048.63;10632863;27;20055;-48
2021/03/11 13:38:32;;;;;;;6.50;1.98;;;;;;;-2.57;17.17;100036.16;10632451;27;20395;-48
2021/03/11 13:43:34;;;;;;;4.68;1.50;;;;;;;-2.63;16.92;100031.16;10631885;27;20391;-49
2021/03/11 13:48:36;;;;;;;6.13;1.90;;;;;;;-2.66;17.29;100026.94;10652195;27;20050;-51
2021/03/11 13:53:38;;;;;;;5.97;1.70;;;;;;;-2.81;17.14;100028.16;10674604;27;20134;-55
2021/03/11 13:58:40;;;;;;;5.90;1.80;;;;;;;-2.83;17.58;100019.66;10676897;27;20058;-51
2021/03/11 14:03:42;;;;;;;4.35;1.77;;;;;;;-2.84;17.58;100009.38;10674602;27;20058;-52
2021/03/11 14:08:44;;;;;;;6.38;1.63;;;;;;;-2.89;17.33;100017.25;10677628;27;20421;-48
2021/03/11 14:13:46;;;;;;;5.60;1.63;;;;;;;-2.89;17.58;100006.94;10675094;27;20389;-48
2021/03/11 14:18:48;;;;;;;5.80;2.30;;;;;;;-2.73;17.53;99998.84;10675882;27;20360;-51
2021/03/11 14:23:51;;;;;;;5.90;2.15;;;;;;;-2.68;17.52;100002.13;10673810;27;20058;-48
2021/03/11 14:28:52;;;;;;;9.50;1.73;;;;;;;-2.92;17.70;99996.75;10672442;27;20379;-51
2021/03/11 14:33:54;;;;;;;5.93;1.67;;;;;;;-2.96;17.78;99992.53;10672916;27;20111;-49
2021/03/11 14:38:56;;;;;;;4.20;1.38;;;;;;;-3.03;17.74;99980.72;10672656;27;20050;-51
2021/03/11 14:43:59;;;;;;;5.07;2.00;;;;;;;-3.03;17.58;99978.16;10671728;27;20043;-49
2021/03/11 14:49:01;;;;;;;7.25;2.00;;;;;;;-3.15;17.81;99970.75;10672508;27;20053;-48
2021/03/11 14:54:04;;;;;;;6.13;2.42;;;;;;;-3.27;17.81;99970.16;10671886;27;20047;-49
2021/03/11 14:59:06;;;;;;;6.50;2.03;;;;;;;-3.53;18.49;99967.38;10671148;27;20439;-49
2021/03/11 15:04:08;;;;;;;5.93;1.88;;;;;;;-3.73;18.27;99966.09;10652813;27;20051;-51
2021/03/11 15:09:11;;;;;;;4.70;1.48;;;;;;;-3.85;18.31;99956.09;10671531;27;20427;-48
2021/03/11 15:14:13;;;;;;;5.47;1.42;;;;;;;-4.05;18.90;99950.56;10671806;27;20138;-51
2021/03/11 15:19:14;;;;;;;4.22;1.35;;;;;;;-4.27;18.98;99945.88;10676439;27;20051;-48
2021/03/11 15:24:17;;;;;;;5.55;1.83;;;;;;;-4.41;19.02;99940.16;10633143;27;20067;-50
2021/03/11 15:29:18;;;;;;;7.50;2.55;;;;;;;-4.56;19.47;99940.47;10633930;27;20104;-52
2021/03/11 15:34:21;;;;;;;4.20;1.00;;;;;;;-4.67;19.46;99931.28;10631916;27;20058;-54
2021/03/11 15:39:23;;;;;;;7.28;2.05;;;;;;;-4.76;19.41;99928.88;10623527;27;20432;-51
2021/03/11 15:44:25;;;;;;;7.82;2.10;;;;;;;-4.79;19.79;99928.94;10618451;27;20077;-48
2021/03/11 15:49:27;;;;;;;6.80;2.05;;;;;;;-4.83;19.30;99924.75;10608760;27;20143;-50
2021/03/11 15:54:30;;;;;;;7.60;1.80;;;;;;;-4.87;19.50;99925.66;10626023;27;20053;-48
2021/03/11 15:59:31;;;;;;;9.90;2.60;;;;;;;-4.95;19.57;99933.53;10616624;27;20055;-48
2021/03/11 16:04:33;;;;;;;6.65;2.67;;;;;;;-5.00;19.61;99922.50;10624831;27;20309;-48
2021/03/11 16:09:36;;;;;;;8.60;2.58;;;;;;;-5.05;19.84;99926.00;10626079;27;20390;-50
2021/03/11 16:14:38;;;;;;;5.40;1.83;;;;;;;-5.12;20.00;99928.69;10593807;27;20090;-51
2021/03/11 16:19:43;;;;;;;5.75;1.92;;;;;;;-5.19;19.93;99918.56;10586125;28;20135;-51
2021/03/11 16:24:46;;;;;;;6.15;1.92;;;;;;;-5.26;20.04;99911.88;10622622;28;20403;-51
2021/03/11 16:29:47;;;;;;;7.55;2.17;;;;;;;-5.35;19.92;99908.59;10625081;28;20051;-47
2021/03/11 16:34:49;;;;;;;7.43;2.15;;;;;;;-5.37;20.23;99910.31;10624729;28;20080;-54
2021/03/11 16:39:51;;;;;;;7.28;1.85;;;;;;;-5.41;20.13;99915.53;10626689;28;20387;-50
2021/03/11 16:44:53;;;;;;;6.72;2.90;;;;;;;-5.49;20.45;99913.09;10583490;28;20043;-51
2021/03/11 16:50:00;;;;;;;10.05;3.85;;;;;;;-5.54;20.57;99904.66;10606971;28;20439;-50
2021/03/11 16:55:04;;;;;;;9.35;3.03;;;;;;;-5.52;20.34;99905.47;10622887;28;20047;-50
2021/03/11 17:00:07;;;;;;;11.20;2.95;;;;;;;-5.51;20.46;99906.28;10606540;28;20051;-51
2021/03/11 17:05:10;;;;;;;10.68;3.03;;;;;;;-5.58;20.77;99898.72;10624825;28;20095;-50
2021/03/11 17:10:14;;;;;;;10.53;3.17;;;;;;;-5.61;20.48;99891.06;10606543;28;20039;-50
2021/03/11 17:15:16;;;;;;;8.00;2.83;;;;;;;-5.65;20.65;99884.31;10624171;28;20108;-50
2021/03/11 17:20:18;;;;;;;7.20;2.97;;;;;;;-5.69;20.72;99875.00;10623292;28;20051;-50
2021/03/11 17:25:21;;;;;;;14.93;3.40;;;;;;;-5.71;20.76;99873.34;10626043;27;20519;-48
2021/03/11 17:30:23;;;;;;;7.15;2.47;;;;;;;-5.72;20.94;99866.53;10630322;27;20062;-47
2021/03/11 17:35:25;;;;;;;8.40;2.80;;;;;;;-5.71;20.94;99868.22;10627374;27;20348;-48
2021/03/11 17:40:27;;;;;;;12.50;5.15;;;;;;;-5.73;21.07;99873.34;10629507;27;20046;-48
2021/03/11 17:45:29;;;;;;;6.07;3.03;;;;;;;-5.80;21.39;99869.22;10632783;27;20050;-48
2021/03/11 17:50:31;;;;;;;9.48;2.75;;;;;;;-5.84;21.30;99865.03;10656901;27;20050;-50
2021/03/11 17:55:34;;;;;;;8.63;2.58;;;;;;;-5.91;21.25;99856.59;10667679;27;20043;-48
2021/03/11 18:00:35;;;;;;;6.67;2.30;;;;;;;-6.00;21.41;99864.44;10668280;27;20057;-47
2021/03/11 18:05:38;;;;;;;9.77;3.03;;;;;;;-6.04;21.41;99861.06;10669301;27;20047;-50
2021/03/11 18:10:42;;;;;;;5.68;2.58;;;;;;;-6.13;21.83;99866.31;10671088;27;20383;-48
2021/03/11 18:15:43;;;;;;;10.02;3.03;;;;;;;-6.22;21.94;99866.44;10669782;27;20051;-51
2021/03/11 18:20:45;;;;;;;7.40;2.50;;;;;;;-6.31;22.03;99864.03;10670929;27;20447;-51
2021/03/11 18:25:47;;;;;;;6.35;2.60;;;;;;;-6.35;21.97;99854.72;10670959;27;20038;-48
2021/03/11 18:30:49;;;;;;;8.65;2.35;;;;;;;-6.46;22.42;99852.31;10671546;27;20535;-52
2021/03/11 18:35:51;;;;;;;14.77;3.47;;;;;;;-6.56;22.34;99850.72;10668829;27;20045;-50
2021/03/11 18:40:55;;;;;;;11.93;2.63;;;;;;;-6.64;22.62;99848.28;10669390;27;20099;-49
2021/03/11 18:45:57;;;;;;;9.90;3.30;;;;;;;-6.72;22.69;99850.06;10671558;27;20469;-60
2021/03/11 18:50:58;;;;;;;11.25;2.75;;;;;;;-6.79;22.74;99853.59;10636870;27;20058;-50
2021/03/11 18:56:01;;;;;;;9.88;2.95;;;;;;;-6.86;22.86;99846.88;10625688;27;20043;-48
2021/03/11 19:01:04;;;;;;;15.33;3.90;;;;;;;-6.87;22.84;99847.72;10624162;27;20058;-51
2021/03/11 19:06:06;;;;;;;8.97;2.50;;;;;;;-6.95;23.03;99843.53;10627646;27;20042;-48
2021/03/11 19:11:09;;;;;;;11.05;3.28;;;;;;;-6.99;23.06;99841.03;10660072;27;20395;-51
2021/03/11 19:16:10;;;;;;;7.70;2.70;;;;;;;-7.06;22.97;99829.19;10668924;27;20042;-47
2021/03/11 19:21:12;;;;;;;4.45;1.00;;;;;;;-7.14;23.33;99831.84;10648735;27;20456;-55
2021/03/11 19:26:15;;;;;;;12.25;3.15;;;;;;;-7.23;23.27;99831.97;10666629;27;20050;-50
2021/03/11 19:31:17;;;;;;;8.75;3.10;;;;;;;-7.32;23.82;99832.06;10663011;27;20046;-51
2021/03/11 19:36:19;;;;;;;9.68;3.15;;;;;;;-7.41;23.56;99823.63;10660727;27;20053;-53
2021/03/11 19:41:21;;;;;;;7.88;3.15;;;;;;;-7.46;23.72;99825.34;10643137;27;20084;-51
2021/03/11 19:46:23;;;;;;;10.40;2.40;;;;;;;-7.51;23.79;99816.03;10658262;27;20042;-47
2021/03/11 19:51:24;;;;;;;6.20;2.25;;;;;;;-7.58;23.97;99819.53;10648179;27;20050;-52
2021/03/11 19:56:27;;;;;;;5.72;2.25;;;;;;;-7.69;24.36;99819.66;10643341;27;20480;-48
2021/03/11 20:01:29;;;;;;;4.90;1.50;;;;;;;-7.79;24.52;99810.38;10645177;27;20133;-48
2021/03/11 20:06:30;;;;;;;4.60;1.50;;;;;;;-7.88;24.48;99811.31;10654025;27;20430;-50
2021/03/11 20:11:33;;;;;;;7.75;2.33;;;;;;;-7.97;24.54;99819.03;10632994;27;20053;-50
2021/03/11 20:16:34;;;;;;;6.38;2.72;;;;;;;-8.03;24.64;99817.38;10654356;27;20039;-50
2021/03/11 20:21:36;;;;;;;6.53;2.72;;;;;;;-8.06;24.85;99811.47;10659330;27;20062;-50
2021/03/11 20:26:39;;;;;;;4.90;2.30;;;;;;;-8.14;24.52;99803.84;10644172;27;20068;-50
2021/03/11 20:31:40;;;;;;;4.28;1.58;;;;;;;-8.17;24.81;99806.44;10609643;28;20100;-48
2021/03/11 20:36:42;;;;;;;3.40;1.25;;;;;;;-8.29;24.83;99803.97;10619587;28;20050;-47
2021/03/11 20:41:45;;;;;;;9.27;2.45;;;;;;;-8.38;24.91;99805.72;10623070;28;20054;-50
2021/03/11 20:46:47;;;;;;;7.93;3.20;;;;;;;-8.41;24.94;99799.84;10601462;28;20353;-49
2021/03/11 20:51:49;;;;;;;6.10;2.78;;;;;;;-8.48;24.89;99799.03;10619589;28;20093;-51
2021/03/11 20:56:52;;;;;;;6.43;2.70;;;;;;;-8.54;25.00;99791.41;10655107;27;20531;-48
2021/03/11 21:01:53;;;;;;;5.27;1.73;;;;;;;-8.60;25.09;99787.22;10670195;27;20050;-48
2021/03/11 21:06:55;;;;;;;4.97;1.60;;;;;;;-8.71;25.33;99785.56;10671617;27;20043;-52
2021/03/11 21:11:57;;;;;;;3.92;1.52;;;;;;;-8.88;25.45;99778.88;10669655;27;20050;-47
2021/03/11 21:16:59;;;;;;;3.47;1.60;;;;;;;-8.96;25.39;99785.69;10673334;27;20070;-49
2021/03/11 21:22:01;;;;;;;4.50;2.10;;;;;;;-9.02;25.71;99774.69;10672609;27;20059;-51
2021/03/11 21:27:04;;;;;;;4.93;1.50;;;;;;;-9.07;25.83;99772.19;10669817;27;20054;-47
2021/03/11 21:32:07;;;;;;;3.70;1.93;;;;;;;-9.13;25.50;99773.06;10670084;27;20126;-49
2021/03/11 21:37:08;;;;;;;7.53;2.13;;;;;;;-9.16;25.55;99767.13;10670253;27;20039;-63
2021/03/11 21:42:11;;;;;;;4.63;1.55;;;;;;;-9.19;26.02;99768.00;10672452;27;20051;-47
2021/03/11 21:47:13;;;;;;;2.30;1.25;;;;;;;-9.22;25.87;99772.25;10649744;27;20035;-50
2021/03/11 21:52:14;;;;;;;5.37;1.87;;;;;;;-9.27;26.15;99764.63;10625775;27;20058;-50
2021/03/11 21:57:17;;;;;;;2.77;0.97;;;;;;;-9.31;26.01;99773.97;10607587;27;20092;-50
2021/03/11 22:02:19;;;;;;;2.93;1.23;;;;;;;-9.35;25.87;99757.03;10628766;27;20057;-51
2021/03/11 22:07:21;;;;;;;3.10;1.07;;;;;;;-9.37;25.76;99753.63;10626924;27;20463;-55
2021/03/11 22:12:23;;;;;;;5.87;1.53;;;;;;;-9.45;25.89;99745.19;10624869;27;20055;-53
2021/03/11 22:17:25;;;;;;;4.53;1.63;;;;;;;-9.48;25.99;99736.69;10624760;27;20475;-46
2021/03/11 22:22:27;;;;;;;6.25;1.88;;;;;;;-9.57;26.16;99750.31;10626728;27;20442;-47
2021/03/11 22:27:29;;;;;;;3.47;1.23;;;;;;;-9.68;26.37;99747.78;10630741;27;20045;-55
2021/03/11 22:32:31;;;;;;;5.33;2.13;;;;;;;-9.73;26.05;99744.41;10666770;27;20047;-47
2021/03/11 22:37:33;;;;;;;5.80;2.03;;;;;;;-9.77;26.16;99733.41;10668151;27;20050;-51
2021/03/11 22:42:37;;;;;;;3.20;1.47;;;;;;;-9.87;26.22;99747.00;10666565;27;20043;-48
2021/03/11 22:47:39;;;;;;;4.22;1.15;;;;;;;-9.98;26.55;99738.53;10662524;27;20034;-47
2021/03/11 22:52:41;;;;;;;8.43;3.10;;;;;;;-10.09;26.47;99742.78;10623441;27;20498;-57
2021/03/11 22:57:43;;;;;;;3.55;1.55;;;;;;;-10.22;26.98;99730.09;10623447;27;20039;-47
2021/03/11 23:02:47;;;;;;;3.90;1.67;;;;;;;-10.30;26.75;99729.28;10613031;27;20055;-54
2021/03/11 23:07:49;;;;;;;5.22;1.40;;;;;;;-10.32;26.51;99728.41;10562257;28;20063;-51
2021/03/11 23:12:51;;;;;;;7.23;1.60;;;;;;;-10.43;27.01;99725.91;10578943;28;20063;-47
2021/03/11 23:17:55;;;;;;;4.13;1.45;;;;;;;-10.52;27.19;99715.72;10581412;28;20047;-48